sensor_id;sensor_type;location;lat;lon;timestamp;pressure;altitude;pressure_sealevel;temperature;humidity
65553;BME280;52465;51.560;14.368;2023-03-04T00:02:21;100628.19;;;7.02;63.58
65553;BME280;52465;51.560;14.368;2023-03-04T00:04:47;100548.75;;;6.55;63.81
65553;BME280;52465;51.560;14.368;2023-03-04T00:07:12;100608.47;;;6.88;63.50
65553;BME280;52465;51.560;14.368;2023-03-04T00:09:44;100604.69;;;6.93;63.40
65553;BME280;52465;51.560;14.368;2023-03-04T00:12:13;100572.44;;;6.73;63.07
65553;BME280;52465;51.560;14.368;2023-03-04T00:14:40;100604.19;;;6.99;63.21
65553;BME280;52465;51.560;14.368;2023-03-04T00:17:05;100603.09;;;7.01;63.50
65553;BME280;52465;51.560;14.368;2023-03-04T00:19:34;100607.47;;;7.01;63.47
65553;BME280;52465;51.560;14.368;2023-03-04T00:22:00;100603.09;;;7.01;63.79
65553;BME280;52465;51.560;14.368;2023-03-04T00:24:26;100574.69;;;6.77;63.77
65553;BME280;52465;51.560;14.368;2023-03-04T00:26:51;100597.00;;;6.91;63.39
65553;BME280;52465;51.560;14.368;2023-03-04T00:29:35;100601.72;;;6.97;63.31
65553;BME280;52465;51.560;14.368;2023-03-04T00:32:01;100588.38;;;6.91;64.12
65553;BME280;52465;51.560;14.368;2023-03-04T00:34:27;100595.41;;;7.00;63.41
65553;BME280;52465;51.560;14.368;2023-03-04T00:36:52;100586.19;;;6.96;63.15
65553;BME280;52465;51.560;14.368;2023-03-04T00:39:18;100591.28;;;6.97;63.28
65553;BME280;52465;51.560;14.368;2023-03-04T00:41:43;100573.59;;;6.91;63.47
65553;BME280;52465;51.560;14.368;2023-03-04T00:44:10;100569.06;;;6.93;63.63
65553;BME280;52465;51.560;14.368;2023-03-04T00:46:35;100526.38;;;6.63;63.89
65553;BME280;52465;51.560;14.368;2023-03-04T00:49:01;100581.72;;;6.98;63.05
65553;BME280;52465;51.560;14.368;2023-03-04T00:51:27;100571.66;;;6.93;63.86
65553;BME280;52465;51.560;14.368;2023-03-04T00:53:52;100571.44;;;6.96;63.58
65553;BME280;52465;51.560;14.368;2023-03-04T00:56:20;100568.69;;;6.98;63.72
65553;BME280;52465;51.560;14.368;2023-03-04T00:58:49;100543.22;;;6.80;63.96
65553;BME280;52465;51.560;14.368;2023-03-04T01:01:14;100552.75;;;6.91;63.88
65553;BME280;52465;51.560;14.368;2023-03-04T01:03:39;100560.88;;;6.98;63.66
65553;BME280;52465;51.560;14.368;2023-03-04T01:06:06;100545.06;;;6.89;64.11
65553;BME280;52465;51.560;14.368;2023-03-04T01:08:32;100554.03;;;6.97;63.57
65553;BME280;52465;51.560;14.368;2023-03-04T01:10:57;100562.53;;;6.99;63.55
65553;BME280;52465;51.560;14.368;2023-03-04T01:13:23;100530.09;;;6.82;63.33
65553;BME280;52465;51.560;14.368;2023-03-04T01:15:48;100554.13;;;6.95;63.61
65553;BME280;52465;51.560;14.368;2023-03-04T01:18:14;100495.53;;;6.59;63.87
65553;BME280;52465;51.560;14.368;2023-03-04T01:20:39;100546.16;;;6.87;64.11
65553;BME280;52465;51.560;14.368;2023-03-04T01:23:05;100498.00;;;6.60;63.70
65553;BME280;52465;51.560;14.368;2023-03-04T01:25:30;100554.03;;;6.97;63.64
65553;BME280;52465;51.560;14.368;2023-03-04T01:27:57;100491.16;;;6.59;63.01
65553;BME280;52465;51.560;14.368;2023-03-04T01:30:22;100541.06;;;6.85;64.03
65553;BME280;52465;51.560;14.368;2023-03-04T01:32:50;100546.34;;;6.95;63.72
65553;BME280;52465;51.560;14.368;2023-03-04T01:35:16;100543.16;;;6.92;63.53
65553;BME280;52465;51.560;14.368;2023-03-04T01:37:41;100540.44;;;6.93;63.52
65553;BME280;52465;51.560;14.368;2023-03-04T01:40:25;100530.03;;;6.93;63.36
65553;BME280;52465;51.560;14.368;2023-03-04T01:42:54;100534.66;;;6.89;63.56
65553;BME280;52465;51.560;14.368;2023-03-04T01:45:19;100498.66;;;6.74;63.76
65553;BME280;52465;51.560;14.368;2023-03-04T01:47:46;100516.19;;;6.93;63.50
65553;BME280;52465;51.560;14.368;2023-03-04T01:50:31;100506.59;;;6.93;63.88
65553;BME280;52465;51.560;14.368;2023-03-04T01:52:56;100501.22;;;6.85;63.48
65553;BME280;52465;51.560;14.368;2023-03-04T01:55:22;100478.41;;;6.77;63.72
65553;BME280;52465;51.560;14.368;2023-03-04T01:57:50;100443.97;;;6.64;63.69
65553;BME280;52465;51.560;14.368;2023-03-04T02:02:46;100475.75;;;6.88;63.98
65553;BME280;52465;51.560;14.368;2023-03-04T02:05:13;100461.78;;;6.89;63.60
65553;BME280;52465;51.560;14.368;2023-03-04T02:07:39;100438.13;;;6.72;64.12
65553;BME280;52465;51.560;14.368;2023-03-04T02:10:05;100453.41;;;6.86;63.16
65553;BME280;52465;51.560;14.368;2023-03-04T02:12:31;100440.34;;;6.76;63.40
65553;BME280;52465;51.560;14.368;2023-03-04T02:14:56;100415.06;;;6.67;63.46
65553;BME280;52465;51.560;14.368;2023-03-04T02:17:26;100446.97;;;6.90;63.32
65553;BME280;52465;51.560;14.368;2023-03-04T02:22:26;100443.00;;;6.86;63.73
65553;BME280;52465;51.560;14.368;2023-03-04T02:25:11;100449.59;;;6.90;64.03
65553;BME280;52465;51.560;14.368;2023-03-04T02:27:39;100458.13;;;6.92;63.99
65553;BME280;52465;51.560;14.368;2023-03-04T02:30:05;100455.66;;;6.91;63.64
65553;BME280;52465;51.560;14.368;2023-03-04T02:32:31;100451.63;;;6.86;64.20
65553;BME280;52465;51.560;14.368;2023-03-04T02:34:56;100455.75;;;6.89;64.19
65553;BME280;52465;51.560;14.368;2023-03-04T02:37:22;100403.31;;;6.63;64.19
65553;BME280;52465;51.560;14.368;2023-03-04T02:39:50;100453.16;;;6.89;63.63
65553;BME280;52465;51.560;14.368;2023-03-04T02:42:18;100434.75;;;6.81;63.46
65553;BME280;52465;51.560;14.368;2023-03-04T02:44:46;100412.47;;;6.67;63.35
65553;BME280;52465;51.560;14.368;2023-03-04T02:47:15;100446.16;;;6.89;63.28
65553;BME280;52465;51.560;14.368;2023-03-04T02:49:42;100434.63;;;6.82;64.16
65553;BME280;52465;51.560;14.368;2023-03-04T02:52:12;100434.50;;;6.84;63.83
65553;BME280;52465;51.560;14.368;2023-03-04T02:54:38;100450.53;;;6.89;63.64
65553;BME280;52465;51.560;14.368;2023-03-04T02:57:22;100435.88;;;6.88;64.00
65553;BME280;52465;51.560;14.368;2023-03-04T02:59:48;100432.31;;;6.89;63.38
65553;BME280;52465;51.560;14.368;2023-03-04T03:02:14;100422.44;;;6.83;64.15
65553;BME280;52465;51.560;14.368;2023-03-04T03:04:39;100373.00;;;6.62;63.81
65553;BME280;52465;51.560;14.368;2023-03-04T03:07:05;100348.84;;;6.50;63.50
65553;BME280;52465;51.560;14.368;2023-03-04T03:09:30;100412.75;;;6.85;63.62
65553;BME280;52465;51.560;14.368;2023-03-04T03:11:56;100365.03;;;6.54;63.96
65553;BME280;52465;51.560;14.368;2023-03-04T03:14:21;100416.28;;;6.84;63.93
65553;BME280;52465;51.560;14.368;2023-03-04T03:16:47;100382.59;;;6.61;63.90
65553;BME280;52465;51.560;14.368;2023-03-04T03:19:13;100429.88;;;6.87;63.78
65553;BME280;52465;51.560;14.368;2023-03-04T03:21:38;100429.19;;;6.85;64.09
65553;BME280;52465;51.560;14.368;2023-03-04T03:24:06;100426.00;;;6.82;63.75
65553;BME280;52465;51.560;14.368;2023-03-04T03:26:33;100400.28;;;6.68;63.48
65553;BME280;52465;51.560;14.368;2023-03-04T03:28:58;100407.34;;;6.77;63.86
65553;BME280;52465;51.560;14.368;2023-03-04T03:31:24;100434.25;;;6.87;63.80
65553;BME280;52465;51.560;14.368;2023-03-04T03:33:49;100408.97;;;6.78;63.54
65553;BME280;52465;51.560;14.368;2023-03-04T03:36:15;100422.19;;;6.86;63.62
65553;BME280;52465;51.560;14.368;2023-03-04T03:38:40;100423.84;;;6.87;63.53
65553;BME280;52465;51.560;14.368;2023-03-04T03:41:08;100413.94;;;6.81;63.60
65553;BME280;52465;51.560;14.368;2023-03-04T03:43:34;100370.09;;;6.55;63.87
65553;BME280;52465;51.560;14.368;2023-03-04T03:45:59;100424.78;;;6.86;63.56
65553;BME280;52465;51.560;14.368;2023-03-04T03:48:25;100387.69;;;6.63;63.75
65553;BME280;52465;51.560;14.368;2023-03-04T03:50:53;100422.31;;;6.84;63.70
65553;BME280;52465;51.560;14.368;2023-03-04T03:53:18;100423.53;;;6.80;63.31
65553;BME280;52465;51.560;14.368;2023-03-04T03:55:43;100432.03;;;6.82;63.56
65553;BME280;52465;51.560;14.368;2023-03-04T03:58:09;100430.38;;;6.81;63.86
65553;BME280;52465;51.560;14.368;2023-03-04T04:00:34;100418.03;;;6.74;63.84
65553;BME280;52465;51.560;14.368;2023-03-04T04:03:00;100395.16;;;6.56;63.42
65553;BME280;52465;51.560;14.368;2023-03-04T04:05:26;100387.94;;;6.60;63.53
65553;BME280;52465;51.560;14.368;2023-03-04T04:07:52;100389.28;;;6.54;63.57
65553;BME280;52465;51.560;14.368;2023-03-04T04:10:18;100435.31;;;6.84;63.54
65553;BME280;52465;51.560;14.368;2023-03-04T04:12:43;100429.94;;;6.76;63.47
65553;BME280;52465;51.560;14.368;2023-03-04T04:15:10;100449.28;;;6.83;63.75
65553;BME280;52465;51.560;14.368;2023-03-04T04:17:36;100437.09;;;6.84;64.13
65553;BME280;52465;51.560;14.368;2023-03-04T04:20:02;100437.22;;;6.82;63.72
65553;BME280;52465;51.560;14.368;2023-03-04T04:22:29;100431.34;;;6.80;64.18
65553;BME280;52465;51.560;14.368;2023-03-04T04:24:54;100413.88;;;6.71;63.62
65553;BME280;52465;51.560;14.368;2023-03-04T04:27:20;100401.91;;;6.59;63.75
65553;BME280;52465;51.560;14.368;2023-03-04T04:29:45;100420.78;;;6.82;63.69
65553;BME280;52465;51.560;14.368;2023-03-04T04:32:10;100367.78;;;6.52;63.72
65553;BME280;52465;51.560;14.368;2023-03-04T04:34:38;100414.63;;;6.83;63.79
65553;BME280;52465;51.560;14.368;2023-03-04T04:37:03;100384.97;;;6.65;63.49
65553;BME280;52465;51.560;14.368;2023-03-04T04:39:29;100384.44;;;6.71;63.99
65553;BME280;52465;51.560;14.368;2023-03-04T04:41:54;100381.25;;;6.67;63.29
65553;BME280;52465;51.560;14.368;2023-03-04T04:44:20;100346.53;;;6.47;63.89
65553;BME280;52465;51.560;14.368;2023-03-04T04:46:45;100391.28;;;6.72;64.39
65553;BME280;52465;51.560;14.368;2023-03-04T04:49:11;100371.81;;;6.66;63.60
65553;BME280;52465;51.560;14.368;2023-03-04T04:51:37;100358.50;;;6.59;63.39
65553;BME280;52465;51.560;14.368;2023-03-04T04:54:03;100381.69;;;6.72;63.87
65553;BME280;52465;51.560;14.368;2023-03-04T04:56:28;100382.66;;;6.71;63.58
65553;BME280;52465;51.560;14.368;2023-03-04T04:58:57;100363.88;;;6.68;63.29
65553;BME280;52465;51.560;14.368;2023-03-04T05:01:23;100353.75;;;6.65;63.66
65553;BME280;52465;51.560;14.368;2023-03-04T05:03:49;100315.94;;;6.40;63.63
65553;BME280;52465;51.560;14.368;2023-03-04T05:06:15;100359.09;;;6.73;63.51
65553;BME280;52465;51.560;14.368;2023-03-04T05:08:40;100341.56;;;6.65;63.92
65553;BME280;52465;51.560;14.368;2023-03-04T05:11:06;100336.50;;;6.63;63.86
65553;BME280;52465;51.560;14.368;2023-03-04T05:13:32;100340.59;;;6.66;63.61
65553;BME280;52465;51.560;14.368;2023-03-04T05:15:58;100341.41;;;6.67;63.79
65553;BME280;52465;51.560;14.368;2023-03-04T05:18:25;100311.91;;;6.47;63.67
65553;BME280;52465;51.560;14.368;2023-03-04T05:20:53;100325.19;;;6.53;63.81
65553;BME280;52465;51.560;14.368;2023-03-04T05:23:20;100357.31;;;6.73;63.73
65553;BME280;52465;51.560;14.368;2023-03-04T05:25:46;100347.44;;;6.67;63.83
65553;BME280;52465;51.560;14.368;2023-03-04T05:28:12;100318.75;;;6.48;63.81
65553;BME280;52465;51.560;14.368;2023-03-04T05:30:39;100320.91;;;6.43;63.62
65553;BME280;52465;51.560;14.368;2023-03-04T05:33:05;100365.13;;;6.73;63.60
65553;BME280;52465;51.560;14.368;2023-03-04T05:35:34;100354.88;;;6.72;63.58
65553;BME280;52465;51.560;14.368;2023-03-04T05:38:00;100338.38;;;6.61;63.84
65553;BME280;52465;51.560;14.368;2023-03-04T05:40:26;100334.13;;;6.60;63.39
65553;BME280;52465;51.560;14.368;2023-03-04T05:42:52;100355.69;;;6.72;63.54
65553;BME280;52465;51.560;14.368;2023-03-04T05:45:18;100357.47;;;6.72;63.61
65553;BME280;52465;51.560;14.368;2023-03-04T05:47:44;100315.19;;;6.49;63.88
65553;BME280;52465;51.560;14.368;2023-03-04T05:50:10;100362.53;;;6.73;63.63
65553;BME280;52465;51.560;14.368;2023-03-04T05:52:35;100312.97;;;6.44;64.19
65553;BME280;52465;51.560;14.368;2023-03-04T05:55:01;100364.22;;;6.74;63.66
65553;BME280;52465;51.560;14.368;2023-03-04T05:57:26;100332.19;;;6.53;63.64
65553;BME280;52465;51.560;14.368;2023-03-04T05:59:51;100364.22;;;6.74;64.25
65553;BME280;52465;51.560;14.368;2023-03-04T06:02:17;100328.88;;;6.51;63.67
65553;BME280;52465;51.560;14.368;2023-03-04T06:04:42;100321.19;;;6.49;63.92
65553;BME280;52465;51.560;14.368;2023-03-04T06:07:08;100292.13;;;6.34;63.36
65553;BME280;52465;51.560;14.368;2023-03-04T06:09:34;100310.34;;;6.44;63.38
65553;BME280;52465;51.560;14.368;2023-03-04T06:11:59;100300.47;;;6.38;63.45
65553;BME280;52465;51.560;14.368;2023-03-04T06:14:25;100347.56;;;6.66;63.74
65553;BME280;52465;51.560;14.368;2023-03-04T06:16:50;100359.09;;;6.73;63.21
65553;BME280;52465;51.560;14.368;2023-03-04T06:19:19;100366.09;;;6.72;63.78
65553;BME280;52465;51.560;14.368;2023-03-04T06:21:44;100336.28;;;6.55;63.80
65553;BME280;52465;51.560;14.368;2023-03-04T06:24:10;100355.00;;;6.70;64.23
65553;BME280;52465;51.560;14.368;2023-03-04T06:26:35;100356.63;;;6.71;63.68
65553;BME280;52465;51.560;14.368;2023-03-04T06:29:01;100359.53;;;6.68;63.36
65553;BME280;52465;51.560;14.368;2023-03-04T06:31:29;100362.66;;;6.72;63.75
65553;BME280;52465;51.560;14.368;2023-03-04T06:33:55;100354.44;;;6.67;63.19
65553;BME280;52465;51.560;14.368;2023-03-04T06:36:21;100340.53;;;6.56;63.51
65553;BME280;52465;51.560;14.368;2023-03-04T06:38:46;100366.22;;;6.71;63.55
65553;BME280;52465;51.560;14.368;2023-03-04T06:41:12;100365.28;;;6.72;63.76
65553;BME280;52465;51.560;14.368;2023-03-04T06:43:38;100329.72;;;6.51;63.88
65553;BME280;52465;51.560;14.368;2023-03-04T06:46:05;100334.41;;;6.57;63.61
65553;BME280;52465;51.560;14.368;2023-03-04T06:48:31;100359.31;;;6.60;63.82
65553;BME280;52465;51.560;14.368;2023-03-04T06:51:06;100353.22;;;6.71;63.49
65553;BME280;52465;51.560;14.368;2023-03-04T06:53:32;100346.75;;;6.65;63.85
65553;BME280;52465;51.560;14.368;2023-03-04T06:55:57;100350.84;;;6.58;64.23
65553;BME280;52465;51.560;14.368;2023-03-04T06:58:23;100317.22;;;6.45;63.29
65553;BME280;52465;51.560;14.368;2023-03-04T07:00:48;100357.47;;;6.72;64.15
65553;BME280;52465;51.560;14.368;2023-03-04T07:03:14;100356.59;;;6.61;64.15
65553;BME280;52465;51.560;14.368;2023-03-04T07:05:39;100309.69;;;6.42;63.98
65553;BME280;52465;51.560;14.368;2023-03-04T07:08:09;100341.94;;;6.60;63.82
65553;BME280;52465;51.560;14.368;2023-03-04T07:10:35;100339.34;;;6.60;64.01
65553;BME280;52465;51.560;14.368;2023-03-04T07:13:08;100359.94;;;6.73;64.19
65553;BME280;52465;51.560;14.368;2023-03-04T07:15:34;100334.13;;;6.60;63.85
65553;BME280;52465;51.560;14.368;2023-03-04T07:18:03;100344.28;;;6.63;63.98
65553;BME280;52465;51.560;14.368;2023-03-04T07:20:28;100348.69;;;6.73;64.41
65553;BME280;52465;51.560;14.368;2023-03-04T07:22:54;100352.25;;;6.72;64.11
65553;BME280;52465;51.560;14.368;2023-03-04T07:25:19;100355.13;;;6.69;63.39
65553;BME280;52465;51.560;14.368;2023-03-04T07:27:44;100331.09;;;6.55;63.39
65553;BME280;52465;51.560;14.368;2023-03-04T07:30:10;100354.31;;;6.68;64.02
65553;BME280;52465;51.560;14.368;2023-03-04T07:32:37;100336.56;;;6.52;63.56
65553;BME280;52465;51.560;14.368;2023-03-04T07:35:06;100360.06;;;6.72;63.62
65553;BME280;52465;51.560;14.368;2023-03-04T07:37:31;100354.03;;;6.71;63.70
65553;BME280;52465;51.560;14.368;2023-03-04T07:39:59;100318.88;;;6.46;63.84
65553;BME280;52465;51.560;14.368;2023-03-04T07:42:24;100359.09;;;6.73;63.76
65553;BME280;52465;51.560;14.368;2023-03-04T07:44:50;100329.81;;;6.50;63.77
65553;BME280;52465;51.560;14.368;2023-03-04T07:47:15;100330.53;;;6.52;64.35
65553;BME280;52465;51.560;14.368;2023-03-04T07:49:41;100345.94;;;6.65;63.63
65553;BME280;52465;51.560;14.368;2023-03-04T07:52:07;100325.88;;;6.55;63.67
65553;BME280;52465;51.560;14.368;2023-03-04T07:54:33;100334.94;;;6.61;63.54
65553;BME280;52465;51.560;14.368;2023-03-04T07:56:59;100329.16;;;6.48;64.21
65553;BME280;52465;51.560;14.368;2023-03-04T07:59:25;100354.31;;;6.68;63.47
65553;BME280;52465;51.560;14.368;2023-03-04T08:01:51;100331.22;;;6.54;63.69
65553;BME280;52465;51.560;14.368;2023-03-04T08:04:17;100362.53;;;6.73;63.94
65553;BME280;52465;51.560;14.368;2023-03-04T08:06:45;100346.91;;;6.63;63.57
65553;BME280;52465;51.560;14.368;2023-03-04T08:09:12;100349.13;;;6.68;63.95
65553;BME280;52465;51.560;14.368;2023-03-04T08:11:42;100356.63;;;6.71;63.55
65553;BME280;52465;51.560;14.368;2023-03-04T08:14:07;100342.38;;;6.66;63.80
65553;BME280;52465;51.560;14.368;2023-03-04T08:16:33;100349.53;;;6.73;64.53
65553;BME280;52465;51.560;14.368;2023-03-04T08:19:00;100342.00;;;6.70;63.59
65553;BME280;52465;51.560;14.368;2023-03-04T08:21:26;100315.88;;;6.51;63.55
65553;BME280;52465;51.560;14.368;2023-03-04T08:23:53;100359.09;;;6.73;64.37
65553;BME280;52465;51.560;14.368;2023-03-04T08:26:22;100341.84;;;6.72;63.44
65553;BME280;52465;51.560;14.368;2023-03-04T08:28:50;100321.13;;;6.60;63.86
65553;BME280;52465;51.560;14.368;2023-03-04T08:31:17;100346.09;;;6.73;63.71
65553;BME280;52465;51.560;14.368;2023-03-04T08:33:43;100289.84;;;6.41;63.80
65553;BME280;52465;51.560;14.368;2023-03-04T08:36:09;100335.25;;;6.68;64.20
65553;BME280;52465;51.560;14.368;2023-03-04T08:38:35;100336.34;;;6.65;64.32
65553;BME280;52465;51.560;14.368;2023-03-04T08:41:04;100325.25;;;6.63;63.46
65553;BME280;52465;51.560;14.368;2023-03-04T08:43:30;100321.41;;;6.57;63.85
65553;BME280;52465;51.560;14.368;2023-03-04T08:45:56;100297.13;;;6.47;63.81
65553;BME280;52465;51.560;14.368;2023-03-04T08:48:22;100347.88;;;6.72;63.91
65553;BME280;52465;51.560;14.368;2023-03-04T08:50:48;100327.28;;;6.59;64.12
65553;BME280;52465;51.560;14.368;2023-03-04T08:53:15;100340.91;;;6.73;63.93
65553;BME280;52465;51.560;14.368;2023-03-04T08:55:42;100338.13;;;6.65;63.92
65553;BME280;52465;51.560;14.368;2023-03-04T08:58:08;100346.00;;;6.74;63.51
65553;BME280;52465;51.560;14.368;2023-03-04T09:00:36;100339.97;;;6.74;64.08
65553;BME280;52465;51.560;14.368;2023-03-04T09:03:02;100302.03;;;6.50;63.87
65553;BME280;52465;51.560;14.368;2023-03-04T09:05:29;100306.41;;;6.50;63.67
65553;BME280;52465;51.560;14.368;2023-03-04T09:07:54;100328.84;;;6.72;63.38
65553;BME280;52465;51.560;14.368;2023-03-04T09:10:20;100319.47;;;6.59;64.24
65553;BME280;52465;51.560;14.368;2023-03-04T09:12:45;100324.59;;;6.71;63.85
65553;BME280;52465;51.560;14.368;2023-03-04T09:15:14;100334.88;;;6.72;63.74
65553;BME280;52465;51.560;14.368;2023-03-04T09:17:40;100308.69;;;6.64;63.94
65553;BME280;52465;51.560;14.368;2023-03-04T09:20:08;100319.66;;;6.68;64.11
65553;BME280;52465;51.560;14.368;2023-03-04T09:22:35;100331.06;;;6.76;64.33
65553;BME280;52465;51.560;14.368;2023-03-04T09:25:01;100319.16;;;6.74;64.04
65553;BME280;52465;51.560;14.368;2023-03-04T09:27:27;100319.16;;;6.74;63.88
65553;BME280;52465;51.560;14.368;2023-03-04T09:29:52;100331.88;;;6.77;64.05
65553;BME280;52465;51.560;14.368;2023-03-04T09:32:18;100312.84;;;6.76;63.39
65553;BME280;52465;51.560;14.368;2023-03-04T09:34:43;100313.09;;;6.73;63.50
65553;BME280;52465;51.560;14.368;2023-03-04T09:37:09;100314.63;;;6.76;63.75
65553;BME280;52465;51.560;14.368;2023-03-04T09:39:34;100267.41;;;6.50;63.59
65553;BME280;52465;51.560;14.368;2023-03-04T09:42:01;100271.09;;;6.47;63.69
65553;BME280;52465;51.560;14.368;2023-03-04T09:44:32;100279.50;;;6.60;63.75
65553;BME280;52465;51.560;14.368;2023-03-04T09:47:03;100307.66;;;6.76;63.78
65553;BME280;52465;51.560;14.368;2023-03-04T09:49:30;100300.81;;;6.75;64.00
65553;BME280;52465;51.560;14.368;2023-03-04T09:52:43;100304.47;;;6.73;63.68
65553;BME280;52465;51.560;14.368;2023-03-04T09:55:24;100308.47;;;6.77;63.70
65553;BME280;52465;51.560;14.368;2023-03-04T09:57:57;100298.44;;;6.72;63.78
65553;BME280;52465;51.560;14.368;2023-03-04T10:03:17;100292.44;;;6.72;63.97
65553;BME280;52465;51.560;14.368;2023-03-04T10:06:00;100288.03;;;6.72;64.03
65553;BME280;52465;51.560;14.368;2023-03-04T10:08:37;100286.69;;;6.68;63.72
65553;BME280;52465;51.560;14.368;2023-03-04T10:11:08;100274.75;;;6.66;63.67
65553;BME280;52465;51.560;14.368;2023-03-04T10:13:56;100290.94;;;6.79;63.60
65553;BME280;52465;51.560;14.368;2023-03-04T10:16:35;100290.94;;;6.79;63.82
65553;BME280;52465;51.560;14.368;2023-03-04T10:21:36;100247.31;;;6.52;63.57
65553;BME280;52465;51.560;14.368;2023-03-04T10:24:14;100292.59;;;6.80;64.21
65553;BME280;52465;51.560;14.368;2023-03-04T10:26:44;100296.84;;;6.81;64.14
65553;BME280;52465;51.560;14.368;2023-03-04T10:29:20;100289.88;;;6.81;64.17
65553;BME280;52465;51.560;14.368;2023-03-04T10:31:46;100274.22;;;6.72;63.84
65553;BME280;52465;51.560;14.368;2023-03-04T10:34:13;100286.31;;;6.82;63.86
65553;BME280;52465;51.560;14.368;2023-03-04T10:36:43;100281.91;;;6.83;64.02
65553;BME280;52465;51.560;14.368;2023-03-04T10:39:21;100280.28;;;6.82;63.55
65553;BME280;52465;51.560;14.368;2023-03-04T10:42:05;100269.88;;;6.82;64.20
65553;BME280;52465;51.560;14.368;2023-03-04T10:44:33;100276.72;;;6.83;63.88
65553;BME280;52465;51.560;14.368;2023-03-04T10:47:00;100271.66;;;6.81;63.83
65553;BME280;52465;51.560;14.368;2023-03-04T10:49:27;100252.44;;;6.63;63.44
65553;BME280;52465;51.560;14.368;2023-03-04T10:52:00;100269.88;;;6.82;64.20
65553;BME280;52465;51.560;14.368;2023-03-04T10:54:46;100273.03;;;6.85;64.20
65553;BME280;52465;51.560;14.368;2023-03-04T10:57:19;100267.84;;;6.85;63.65
65553;BME280;52465;51.560;14.368;2023-03-04T10:59:56;100263.47;;;6.86;64.15
65553;BME280;52465;51.560;14.368;2023-03-04T11:04:56;100249.59;;;6.76;63.74
65553;BME280;52465;51.560;14.368;2023-03-04T11:07:24;100247.00;;;6.76;64.04
65553;BME280;52465;51.560;14.368;2023-03-04T11:09:50;100265.09;;;6.87;63.97
65553;BME280;52465;51.560;14.368;2023-03-04T11:12:19;100227.91;;;6.66;63.73
65553;BME280;52465;51.560;14.368;2023-03-04T11:14:47;100243.19;;;6.80;63.67
65553;BME280;52465;51.560;14.368;2023-03-04T11:17:21;100257.97;;;6.89;63.83
65553;BME280;52465;51.560;14.368;2023-03-04T11:20:02;100249.19;;;6.90;63.84
65553;BME280;52465;51.560;14.368;2023-03-04T11:22:30;100251.13;;;6.88;63.79
65553;BME280;52465;51.560;14.368;2023-03-04T11:25:01;100246.84;;;6.77;63.90
65553;BME280;52465;51.560;14.368;2023-03-04T11:27:46;100250.44;;;6.86;64.21
65553;BME280;52465;51.560;14.368;2023-03-04T11:30:24;100270.72;;;6.92;63.51
65553;BME280;52465;51.560;14.368;2023-03-04T11:32:52;100269.09;;;6.91;63.59
65553;BME280;52465;51.560;14.368;2023-03-04T11:35:28;100263.88;;;6.91;63.96
65553;BME280;52465;51.560;14.368;2023-03-04T11:38:08;100274.69;;;6.86;63.76
65553;BME280;52465;51.560;14.368;2023-03-04T11:40:42;100264.72;;;6.92;64.25
65553;BME280;52465;51.560;14.368;2023-03-04T11:43:18;100269.63;;;6.95;63.79
65553;BME280;52465;51.560;14.368;2023-03-04T11:51:50;100244.97;;;6.89;63.77
65553;BME280;52465;51.560;14.368;2023-03-04T11:57:08;100239.50;;;6.92;64.82
65553;BME280;52465;51.560;14.368;2023-03-04T11:59:57;100245.53;;;6.93;64.16
65553;BME280;52465;51.560;14.368;2023-03-04T12:02:34;100190.81;;;6.63;63.58
65553;BME280;52465;51.560;14.368;2023-03-04T12:05:18;100235.94;;;6.93;63.75
65553;BME280;52465;51.560;14.368;2023-03-04T12:11:07;100234.84;;;6.96;63.86
65553;BME280;52465;51.560;14.368;2023-03-04T12:22:25;100236.63;;;6.95;63.80
65553;BME280;52465;51.560;14.368;2023-03-04T12:36:15;100213.06;;;6.87;64.15
65553;BME280;52465;51.560;14.368;2023-03-04T12:38:59;100220.06;;;6.96;63.95
65553;BME280;52465;51.560;14.368;2023-03-04T12:44:36;100187.72;;;6.79;63.87
65553;BME280;52465;51.560;14.368;2023-03-04T12:53:19;100196.75;;;6.85;64.19
65553;BME280;52465;51.560;14.368;2023-03-04T12:55:54;100219.94;;;6.98;64.08
65553;BME280;52465;51.560;14.368;2023-03-04T12:58:22;100216.50;;;6.97;64.62
65553;BME280;52465;51.560;14.368;2023-03-04T13:01:02;100200.47;;;6.92;64.24
65553;BME280;52465;51.560;14.368;2023-03-04T13:03:40;100207.16;;;6.95;63.62
65553;BME280;52465;51.560;14.368;2023-03-04T13:06:34;100198.69;;;6.93;63.82
65553;BME280;52465;51.560;14.368;2023-03-04T13:11:44;100196.34;;;6.99;64.02
65553;BME280;52465;51.560;14.368;2023-03-04T13:16:42;100200.59;;;7.00;63.90
65553;BME280;52465;51.560;14.368;2023-03-04T13:25:31;100205.81;;;7.00;63.79
65553;BME280;52465;51.560;14.368;2023-03-04T13:51:32;100215.28;;;7.40;64.50
65553;BME280;52465;51.560;14.368;2023-03-04T13:56:34;100209.41;;;7.48;64.27
65553;BME280;52465;51.560;14.368;2023-03-04T14:04:00;100208.72;;;7.55;64.82
65553;BME280;52465;51.560;14.368;2023-03-04T14:06:30;100210.75;;;7.61;64.54
65553;BME280;52465;51.560;14.368;2023-03-04T14:08:56;100198.16;;;7.57;64.83
65553;BME280;52465;51.560;14.368;2023-03-04T14:11:28;100199.94;;;7.66;64.62
65553;BME280;52465;51.560;14.368;2023-03-04T14:13:58;100176.22;;;7.59;65.05
65553;BME280;52465;51.560;14.368;2023-03-04T14:16:27;100170.31;;;7.57;64.90
65553;BME280;52465;51.560;14.368;2023-03-04T14:19:00;100179.34;;;7.63;64.85
65553;BME280;52465;51.560;14.368;2023-03-04T14:21:27;100192.22;;;7.74;64.89
65553;BME280;52465;51.560;14.368;2023-03-04T14:24:04;100183.59;;;7.74;64.87
65553;BME280;52465;51.560;14.368;2023-03-04T14:26:30;100171.28;;;7.66;65.08
65553;BME280;52465;51.560;14.368;2023-03-04T14:28:57;100186.06;;;7.75;64.69
65553;BME280;52465;51.560;14.368;2023-03-04T14:31:25;100191.00;;;7.78;64.82
65553;BME280;52465;51.560;14.368;2023-03-04T14:33:55;100186.59;;;7.79;65.56